Grenadines III — CRA5628 — position and weather

sailwx.info

Track history (hours):
 
Tides and Currents Weather Stations Pressure Air Temp Water Temp Dewpoint Dewpoint Depression Visibility Wind Speed Wind Dir Waves Ship Positions

Grenadines III

Last reported at 2015-Sep-21 09:30 UTC. Time now 2016-Feb-11 13:04 UTC.
Position N 43°10' E 006°39'.
Warning: this ship's position is months out of date.

Type: Pilot. MMSI: 225910870.

Date/timePositionNaut miles runAvg speedWind from/ knotsBaromVisibWave heightAir tempDewpointWater temp
2015-Sep-21 09:30N 43°10' E 006°39'8 7.9
2015-Sep-21 08:33N 43°17' E 006°41'2 0.7
2015-Sep-21 05:32N 43°18' E 006°38'0 0.0
2015-Sep-20 19:29N 43°18' E 006°38'0 0.0
2015-Sep-20 16:33N 43°18' E 006°38'2 0.9
2015-Sep-20 14:29N 43°16' E 006°38'4 4.0
2015-Sep-20 13:33N 43°16' E 006°43'4 3.2
2015-Sep-20 12:23N 43°13' E 006°40'0 0.0
2015-Sep-20 09:28N 43°13' E 006°40'3 3.5
2015-Sep-20 08:33N 43°16' E 006°43'5 0.3
2015-Sep-19 16:23N 43°17' E 006°36'7 8.2
2015-Sep-19 15:33N 43°18' E 006°45'1212.4
2015-Sep-19 14:33N 43°19' E 007°02'4711.6
2015-Sep-19 10:32N 43°01' E 008°01'  
2015-Sep-15 07:31N 40°47' E 013°46'1111.2
2015-Sep-15 06:33N 40°44' E 013°59'1411.9
2015-Sep-15 05:25N 40°35' E 014°13'2 2.2
2015-Sep-15 04:31N 40°33' E 014°15'0 0.0
2015-Sep-15 03:31N 40°33' E 014°15'0 0.0
2015-Sep-15 02:13N 40°33' E 014°15'0 0.0
2015-Sep-15 01:31N 40°33' E 014°15'0 0.0
2015-Sep-14 23:25N 40°33' E 014°15'0 0.0
2015-Sep-14 19:31N 40°33' E 014°15'0 0.0
2015-Sep-14 15:25N 40°33' E 014°15'0 0.0
2015-Sep-14 13:31N 40°33' E 014°15'0 0.0
2015-Sep-14 12:31N 40°33' E 014°15'0 0.0
2015-Sep-14 11:31N 40°33' E 014°15'0 0.0
2015-Sep-14 10:31N 40°33' E 014°15'0 0.0
2015-Sep-14 09:31N 40°33' E 014°15'0 0.0
2015-Sep-14 04:31N 40°33' E 014°15'0 0.0
2015-Sep-14 03:19N 40°33' E 014°15'0 0.0
2015-Sep-14 02:25N 40°33' E 014°15'0 0.0
2015-Sep-14 01:31N 40°33' E 014°15'0 0.0
2015-Sep-14 00:31N 40°33' E 014°15'0 0.0
2015-Sep-13 23:19N 40°33' E 014°15'0 0.0
2015-Sep-13 21:19N 40°33' E 014°15'0 0.0
2015-Sep-13 20:19N 40°33' E 014°15'0 0.0
2015-Sep-13 12:27N 40°34' E 014°15'0 0.1
2015-Sep-13 09:14N 40°34' E 014°14'1 0.8
2015-Sep-13 07:33N 40°32' E 014°14'4 4.3
2015-Sep-13 06:33N 40°34' E 014°09'1110.9
2015-Sep-13 05:33N 40°37' E 013°55'1110.9
2015-Sep-13 04:33N 40°41' E 013°42'3610.3
2015-Sep-13 01:05N 40°54' E 012°58'  
Track history (hours):
 
Tides and Currents Weather Stations Pressure Air Temp Water Temp Dewpoint Dewpoint Depression Visibility Wind Speed Wind Dir Waves Ship Positions

Grenadines III

Last reported at 2015-Sep-21 09:30 UTC. Time now 2016-Feb-11 13:04 UTC.
Position N 43°10' E 006°39'.
Warning: this ship's position is months out of date.

Type: Pilot. MMSI: 225910870.

Date/timePositionNaut miles runAvg speedWind from/ knotsBaromVisibWave heightAir tempDewpointWater temp
2015-Sep-21 09:30N 43°10' E 006°39'8 7.9
2015-Sep-21 08:33N 43°17' E 006°41'2 0.7
2015-Sep-21 05:32N 43°18' E 006°38'0 0.0
2015-Sep-20 19:29N 43°18' E 006°38'0 0.0
2015-Sep-20 16:33N 43°18' E 006°38'2 0.9
2015-Sep-20 14:29N 43°16' E 006°38'4 4.0
2015-Sep-20 13:33N 43°16' E 006°43'4 3.2
2015-Sep-20 12:23N 43°13' E 006°40'0 0.0
2015-Sep-20 09:28N 43°13' E 006°40'3 3.5
2015-Sep-20 08:33N 43°16' E 006°43'5 0.3
2015-Sep-19 16:23N 43°17' E 006°36'7 8.2
2015-Sep-19 15:33N 43°18' E 006°45'1212.4
2015-Sep-19 14:33N 43°19' E 007°02'4711.6
2015-Sep-19 10:32N 43°01' E 008°01'  
2015-Sep-15 07:31N 40°47' E 013°46'1111.2
2015-Sep-15 06:33N 40°44' E 013°59'1411.9
2015-Sep-15 05:25N 40°35' E 014°13'2 2.2
2015-Sep-15 04:31N 40°33' E 014°15'0 0.0
2015-Sep-15 03:31N 40°33' E 014°15'0 0.0
2015-Sep-15 02:13N 40°33' E 014°15'0 0.0
2015-Sep-15 01:31N 40°33' E 014°15'0 0.0
2015-Sep-14 23:25N 40°33' E 014°15'0 0.0
2015-Sep-14 19:31N 40°33' E 014°15'0 0.0
2015-Sep-14 15:25N 40°33' E 014°15'0 0.0
2015-Sep-14 13:31N 40°33' E 014°15'0 0.0
2015-Sep-14 12:31N 40°33' E 014°15'0 0.0
2015-Sep-14 11:31N 40°33' E 014°15'0 0.0
2015-Sep-14 10:31N 40°33' E 014°15'0 0.0
2015-Sep-14 09:31N 40°33' E 014°15'0 0.0
2015-Sep-14 04:31N 40°33' E 014°15'0 0.0
2015-Sep-14 03:19N 40°33' E 014°15'0 0.0
2015-Sep-14 02:25N 40°33' E 014°15'0 0.0
2015-Sep-14 01:31N 40°33' E 014°15'0 0.0
2015-Sep-14 00:31N 40°33' E 014°15'0 0.0
2015-Sep-13 23:19N 40°33' E 014°15'0 0.0
2015-Sep-13 21:19N 40°33' E 014°15'0 0.0
2015-Sep-13 20:19N 40°33' E 014°15'0 0.0
2015-Sep-13 12:27N 40°34' E 014°15'0 0.1
2015-Sep-13 09:14N 40°34' E 014°14'1 0.8
2015-Sep-13 07:33N 40°32' E 014°14'4 4.3
2015-Sep-13 06:33N 40°34' E 014°09'1110.9
2015-Sep-13 05:33N 40°37' E 013°55'1110.9
2015-Sep-13 04:33N 40°41' E 013°42'3610.3
2015-Sep-13 01:05N 40°54' E 012°58'  

Dump ship's entire track history